sensor_id;sensor_type;location;lat;lon;timestamp;P1;durP1;ratioP1;P2;durP2;ratioP2
37377;SDS011;23248;48.120;14.854;2022-09-02T00:11:06;6.03;;;2.30;;
37377;SDS011;23248;48.120;14.854;2022-09-02T00:30:35;6.03;;;2.20;;
37377;SDS011;23248;48.120;14.854;2022-09-02T00:35:27;7.27;;;2.47;;
37377;SDS011;23248;48.120;14.854;2022-09-02T00:37:53;9.85;;;2.75;;
37377;SDS011;23248;48.120;14.854;2022-09-02T00:45:10;6.27;;;2.50;;
37377;SDS011;23248;48.120;14.854;2022-09-02T00:47:37;15.27;;;2.40;;
37377;SDS011;23248;48.120;14.854;2022-09-02T00:50:08;4.97;;;2.60;;
37377;SDS011;23248;48.120;14.854;2022-09-02T00:52:40;5.23;;;2.30;;
37377;SDS011;23248;48.120;14.854;2022-09-02T00:55:10;6.97;;;2.40;;
37377;SDS011;23248;48.120;14.854;2022-09-02T00:57:53;8.77;;;2.47;;
37377;SDS011;23248;48.120;14.854;2022-09-02T07:02:09;3.50;;;2.20;;
37377;SDS011;23248;48.120;14.854;2022-09-02T07:04:34;8.00;;;2.00;;
37377;SDS011;23248;48.120;14.854;2022-09-02T07:07:18;5.80;;;2.20;;
37377;SDS011;23248;48.120;14.854;2022-09-02T07:09:44;3.83;;;2.10;;
37377;SDS011;23248;48.120;14.854;2022-09-02T07:26:47;2.00;;;1.70;;
37377;SDS011;23248;48.120;14.854;2022-09-02T07:31:40;2.15;;;1.58;;
37377;SDS011;23248;48.120;14.854;2022-09-02T07:34:08;5.28;;;2.25;;
37377;SDS011;23248;48.120;14.854;2022-09-02T07:36:34;1.95;;;1.80;;
37377;SDS011;23248;48.120;14.854;2022-09-02T07:43:53;2.78;;;1.60;;
37377;SDS011;23248;48.120;14.854;2022-09-02T07:46:19;2.17;;;1.63;;
37377;SDS011;23248;48.120;14.854;2022-09-02T07:48:45;2.67;;;1.67;;
37377;SDS011;23248;48.120;14.854;2022-09-02T07:51:14;4.35;;;1.60;;
37377;SDS011;23248;48.120;14.854;2022-09-02T07:53:42;2.10;;;1.90;;
37377;SDS011;23248;48.120;14.854;2022-09-02T07:56:09;2.97;;;1.63;;
37377;SDS011;23248;48.120;14.854;2022-09-02T08:01:03;3.83;;;1.60;;
37377;SDS011;23248;48.120;14.854;2022-09-02T08:03:29;3.15;;;1.58;;
37377;SDS011;23248;48.120;14.854;2022-09-02T08:05:55;4.00;;;1.50;;
37377;SDS011;23248;48.120;14.854;2022-09-02T08:08:21;3.42;;;1.67;;
37377;SDS011;23248;48.120;14.854;2022-09-02T08:50:13;2.05;;;1.70;;
37377;SDS011;23248;48.120;14.854;2022-09-02T10:01:11;2.35;;;1.65;;
37377;SDS011;23248;48.120;14.854;2022-09-02T10:03:40;6.22;;;1.63;;
37377;SDS011;23248;48.120;14.854;2022-09-02T10:06:17;3.45;;;1.27;;
37377;SDS011;23248;48.120;14.854;2022-09-02T10:08:50;2.58;;;1.50;;
37377;SDS011;23248;48.120;14.854;2022-09-02T10:11:24;1.23;;;1.10;;
37377;SDS011;23248;48.120;14.854;2022-09-02T10:13:52;3.72;;;1.27;;
37377;SDS011;23248;48.120;14.854;2022-09-02T10:18:53;2.70;;;1.15;;
37377;SDS011;23248;48.120;14.854;2022-09-02T10:27:07;1.70;;;1.60;;
37377;SDS011;23248;48.120;14.854;2022-09-02T10:33:00;1.63;;;1.20;;
37377;SDS011;23248;48.120;14.854;2022-09-02T10:40:58;2.05;;;1.30;;
37377;SDS011;23248;48.120;14.854;2022-09-02T10:46:24;1.50;;;1.08;;
37377;SDS011;23248;48.120;14.854;2022-09-02T10:48:54;1.95;;;1.30;;
37377;SDS011;23248;48.120;14.854;2022-09-02T10:59:32;2.00;;;1.38;;
37377;SDS011;23248;48.120;14.854;2022-09-02T11:02:11;3.15;;;1.30;;
37377;SDS011;23248;48.120;14.854;2022-09-02T11:04:50;1.50;;;1.02;;
37377;SDS011;23248;48.120;14.854;2022-09-02T11:07:32;1.35;;;1.10;;
37377;SDS011;23248;48.120;14.854;2022-09-02T11:13:03;3.60;;;1.30;;
37377;SDS011;23248;48.120;14.854;2022-09-02T11:18:16;3.20;;;1.20;;
37377;SDS011;23248;48.120;14.854;2022-09-02T11:21:02;1.17;;;1.00;;
37377;SDS011;23248;48.120;14.854;2022-09-02T11:23:43;1.48;;;1.38;;
37377;SDS011;23248;48.120;14.854;2022-09-02T11:26:25;1.30;;;1.20;;
37377;SDS011;23248;48.120;14.854;2022-09-02T11:29:20;1.58;;;1.10;;
37377;SDS011;23248;48.120;14.854;2022-09-02T11:32:14;1.20;;;1.10;;
37377;SDS011;23248;48.120;14.854;2022-09-02T11:34:45;1.00;;;1.00;;
37377;SDS011;23248;48.120;14.854;2022-09-02T11:37:36;1.00;;;1.00;;
37377;SDS011;23248;48.120;14.854;2022-09-02T11:45:38;1.35;;;1.25;;
37377;SDS011;23248;48.120;14.854;2022-09-02T11:58:49;1.40;;;1.30;;
37377;SDS011;23248;48.120;14.854;2022-09-02T12:01:29;2.75;;;1.20;;
37377;SDS011;23248;48.120;14.854;2022-09-02T12:04:04;1.70;;;1.33;;
37377;SDS011;23248;48.120;14.854;2022-09-02T12:06:36;3.15;;;1.00;;
37377;SDS011;23248;48.120;14.854;2022-09-02T12:09:04;6.53;;;1.67;;
37377;SDS011;23248;48.120;14.854;2022-09-02T12:11:44;3.92;;;1.10;;
37377;SDS011;23248;48.120;14.854;2022-09-02T12:17:00;1.65;;;1.30;;
37377;SDS011;23248;48.120;14.854;2022-09-02T12:24:54;1.30;;;1.00;;
37377;SDS011;23248;48.120;14.854;2022-09-02T12:27:25;1.40;;;1.35;;
37377;SDS011;23248;48.120;14.854;2022-09-02T12:29:55;1.50;;;1.20;;
37377;SDS011;23248;48.120;14.854;2022-09-02T12:35:09;0.95;;;0.93;;
37377;SDS011;23248;48.120;14.854;2022-09-02T12:37:57;0.90;;;0.90;;
37377;SDS011;23248;48.120;14.854;2022-09-02T12:49:42;3.53;;;1.20;;
37377;SDS011;23248;48.120;14.854;2022-09-02T12:51:58;1.27;;;1.20;;
37377;SDS011;23248;48.120;14.854;2022-09-02T12:57:17;0.95;;;0.93;;
37377;SDS011;23248;48.120;14.854;2022-09-02T12:59:44;4.43;;;1.10;;
37377;SDS011;23248;48.120;14.854;2022-09-02T13:08:06;0.90;;;0.90;;
37377;SDS011;23248;48.120;14.854;2022-09-02T13:10:44;1.08;;;1.02;;
37377;SDS011;23248;48.120;14.854;2022-09-02T13:13:36;0.90;;;0.90;;
37377;SDS011;23248;48.120;14.854;2022-09-02T13:21:55;2.15;;;1.20;;
37377;SDS011;23248;48.120;14.854;2022-09-02T13:27:37;2.47;;;0.93;;
37377;SDS011;23248;48.120;14.854;2022-09-02T13:33:05;1.27;;;1.10;;
37377;SDS011;23248;48.120;14.854;2022-09-02T13:35:38;1.02;;;0.95;;
37377;SDS011;23248;48.120;14.854;2022-09-02T13:38:08;4.40;;;1.05;;
37377;SDS011;23248;48.120;14.854;2022-09-02T13:40:38;1.27;;;1.17;;
37377;SDS011;23248;48.120;14.854;2022-09-02T13:45:42;3.25;;;1.02;;
37377;SDS011;23248;48.120;14.854;2022-09-02T13:50:44;1.67;;;1.30;;
37377;SDS011;23248;48.120;14.854;2022-09-02T13:55:55;3.45;;;1.10;;
37377;SDS011;23248;48.120;14.854;2022-09-02T14:00:55;2.03;;;1.00;;
37377;SDS011;23248;48.120;14.854;2022-09-02T14:03:23;1.70;;;0.93;;
37377;SDS011;23248;48.120;14.854;2022-09-02T14:05:50;3.08;;;1.10;;
37377;SDS011;23248;48.120;14.854;2022-09-02T14:08:22;1.33;;;1.10;;
37377;SDS011;23248;48.120;14.854;2022-09-02T14:10:53;2.65;;;1.00;;
37377;SDS011;23248;48.120;14.854;2022-09-02T14:13:20;2.42;;;1.05;;
37377;SDS011;23248;48.120;14.854;2022-09-02T14:15:46;1.30;;;1.20;;
37377;SDS011;23248;48.120;14.854;2022-09-02T14:18:17;1.10;;;1.05;;
37377;SDS011;23248;48.120;14.854;2022-09-02T14:21:45;3.28;;;1.00;;
37377;SDS011;23248;48.120;14.854;2022-09-02T14:23:47;0.90;;;0.90;;
37377;SDS011;23248;48.120;14.854;2022-09-02T14:29:16;1.00;;;1.00;;
37377;SDS011;23248;48.120;14.854;2022-09-02T14:31:44;1.20;;;1.10;;
37377;SDS011;23248;48.120;14.854;2022-09-02T14:36:59;1.13;;;1.00;;
37377;SDS011;23248;48.120;14.854;2022-09-02T14:39:25;1.17;;;1.00;;
37377;SDS011;23248;48.120;14.854;2022-09-02T14:41:51;2.45;;;1.00;;
37377;SDS011;23248;48.120;14.854;2022-09-02T14:44:23;1.05;;;1.05;;
37377;SDS011;23248;48.120;14.854;2022-09-02T14:46:56;3.13;;;1.17;;
37377;SDS011;23248;48.120;14.854;2022-09-02T14:49:35;1.60;;;1.00;;
37377;SDS011;23248;48.120;14.854;2022-09-02T14:52:18;1.88;;;1.20;;
37377;SDS011;23248;48.120;14.854;2022-09-02T14:54:48;2.70;;;1.30;;
37377;SDS011;23248;48.120;14.854;2022-09-02T15:02:28;1.20;;;1.08;;
37377;SDS011;23248;48.120;14.854;2022-09-02T15:04:57;1.10;;;1.10;;
37377;SDS011;23248;48.120;14.854;2022-09-02T15:07:25;1.33;;;1.20;;
37377;SDS011;23248;48.120;14.854;2022-09-02T15:09:51;4.07;;;1.10;;
37377;SDS011;23248;48.120;14.854;2022-09-02T15:12:18;1.48;;;1.10;;
37377;SDS011;23248;48.120;14.854;2022-09-02T15:14:51;1.55;;;1.10;;
37377;SDS011;23248;48.120;14.854;2022-09-02T15:17:18;1.58;;;1.20;;
37377;SDS011;23248;48.120;14.854;2022-09-02T15:19:45;1.35;;;1.20;;
37377;SDS011;23248;48.120;14.854;2022-09-02T15:22:11;3.63;;;1.30;;
37377;SDS011;23248;48.120;14.854;2022-09-02T15:24:38;1.27;;;1.17;;
37377;SDS011;23248;48.120;14.854;2022-09-02T15:27:03;1.13;;;1.13;;
37377;SDS011;23248;48.120;14.854;2022-09-02T15:29:29;1.85;;;1.02;;
37377;SDS011;23248;48.120;14.854;2022-09-02T15:31:56;1.42;;;1.20;;
37377;SDS011;23248;48.120;14.854;2022-09-02T15:34:21;5.50;;;1.33;;
37377;SDS011;23248;48.120;14.854;2022-09-02T15:36:48;3.25;;;1.15;;
37377;SDS011;23248;48.120;14.854;2022-09-02T15:39:14;1.05;;;1.05;;
37377;SDS011;23248;48.120;14.854;2022-09-02T15:41:43;1.10;;;1.10;;
37377;SDS011;23248;48.120;14.854;2022-09-02T15:44:09;1.50;;;1.20;;
37377;SDS011;23248;48.120;14.854;2022-09-02T15:46:35;1.65;;;1.15;;
37377;SDS011;23248;48.120;14.854;2022-09-02T15:49:02;1.20;;;1.10;;
37377;SDS011;23248;48.120;14.854;2022-09-02T15:51:30;1.10;;;1.08;;
37377;SDS011;23248;48.120;14.854;2022-09-02T15:53:57;1.50;;;1.40;;
37377;SDS011;23248;48.120;14.854;2022-09-02T15:56:28;2.28;;;1.30;;
37377;SDS011;23248;48.120;14.854;2022-09-02T16:23:25;4.80;;;1.40;;
37377;SDS011;23248;48.120;14.854;2022-09-02T16:48:11;1.63;;;1.20;;
37377;SDS011;23248;48.120;14.854;2022-09-02T16:50:37;1.60;;;1.20;;
37377;SDS011;23248;48.120;14.854;2022-09-02T16:53:03;1.38;;;0.98;;
37377;SDS011;23248;48.120;14.854;2022-09-02T16:55:29;1.42;;;1.30;;
37377;SDS011;23248;48.120;14.854;2022-09-02T16:57:54;3.28;;;1.13;;
37377;SDS011;23248;48.120;14.854;2022-09-02T17:00:24;1.50;;;1.40;;
37377;SDS011;23248;48.120;14.854;2022-09-02T17:02:51;3.78;;;1.50;;
37377;SDS011;23248;48.120;14.854;2022-09-02T17:05:16;1.30;;;1.30;;
37377;SDS011;23248;48.120;14.854;2022-09-02T17:07:42;4.20;;;1.52;;
37377;SDS011;23248;48.120;14.854;2022-09-02T17:10:09;1.30;;;1.30;;
37377;SDS011;23248;48.120;14.854;2022-09-02T17:12:35;2.72;;;1.35;;
37377;SDS011;23248;48.120;14.854;2022-09-02T17:15:01;3.10;;;1.20;;
37377;SDS011;23248;48.120;14.854;2022-09-02T17:44:30;4.03;;;2.58;;
37377;SDS011;23248;48.120;14.854;2022-09-02T17:47:03;3.42;;;2.22;;
37377;SDS011;23248;48.120;14.854;2022-09-02T17:49:34;8.40;;;2.30;;
37377;SDS011;23248;48.120;14.854;2022-09-02T17:54:29;5.82;;;2.10;;
37377;SDS011;23248;48.120;14.854;2022-09-02T18:10:56;3.25;;;1.60;;
37377;SDS011;23248;48.120;14.854;2022-09-02T18:19:01;3.25;;;1.73;;
37377;SDS011;23248;48.120;14.854;2022-09-02T18:21:43;5.20;;;2.25;;
37377;SDS011;23248;48.120;14.854;2022-09-02T18:30:29;3.05;;;1.65;;
37377;SDS011;23248;48.120;14.854;2022-09-02T18:41:07;6.70;;;1.73;;
37377;SDS011;23248;48.120;14.854;2022-09-02T18:46:50;2.65;;;1.55;;
37377;SDS011;23248;48.120;14.854;2022-09-02T18:49:23;7.35;;;1.83;;
37377;SDS011;23248;48.120;14.854;2022-09-02T18:51:55;2.88;;;1.90;;
37377;SDS011;23248;48.120;14.854;2022-09-02T18:54:33;3.15;;;1.83;;
37377;SDS011;23248;48.120;14.854;2022-09-02T18:57:10;5.28;;;1.88;;
37377;SDS011;23248;48.120;14.854;2022-09-02T19:02:52;1.70;;;1.60;;
37377;SDS011;23248;48.120;14.854;2022-09-02T19:05:03;2.13;;;1.92;;
37377;SDS011;23248;48.120;14.854;2022-09-02T19:07:33;7.63;;;1.75;;
37377;SDS011;23248;48.120;14.854;2022-09-02T19:10:19;1.95;;;1.85;;
37377;SDS011;23248;48.120;14.854;2022-09-02T19:12:46;3.30;;;1.80;;
37377;SDS011;23248;48.120;14.854;2022-09-02T19:15:12;3.10;;;1.98;;
37377;SDS011;23248;48.120;14.854;2022-09-02T19:17:39;4.70;;;1.90;;
37377;SDS011;23248;48.120;14.854;2022-09-02T19:20:06;2.40;;;1.90;;
37377;SDS011;23248;48.120;14.854;2022-09-02T19:22:33;4.95;;;2.00;;
37377;SDS011;23248;48.120;14.854;2022-09-02T19:25:08;4.80;;;1.80;;
37377;SDS011;23248;48.120;14.854;2022-09-02T19:27:37;3.42;;;2.20;;
37377;SDS011;23248;48.120;14.854;2022-09-02T19:56:55;3.90;;;2.20;;
37377;SDS011;23248;48.120;14.854;2022-09-02T19:59:20;2.75;;;2.00;;
37377;SDS011;23248;48.120;14.854;2022-09-02T20:01:46;6.38;;;1.95;;
37377;SDS011;23248;48.120;14.854;2022-09-02T20:04:12;3.72;;;2.05;;
37377;SDS011;23248;48.120;14.854;2022-09-02T20:06:39;4.20;;;2.05;;
37377;SDS011;23248;48.120;14.854;2022-09-02T20:09:05;2.17;;;1.90;;
37377;SDS011;23248;48.120;14.854;2022-09-02T20:11:32;4.40;;;2.03;;
37377;SDS011;23248;48.120;14.854;2022-09-02T20:13:58;3.10;;;2.00;;
37377;SDS011;23248;48.120;14.854;2022-09-02T20:16:25;6.05;;;2.17;;
37377;SDS011;23248;48.120;14.854;2022-09-02T20:18:52;3.42;;;2.13;;
37377;SDS011;23248;48.120;14.854;2022-09-02T20:21:21;4.05;;;2.33;;
37377;SDS011;23248;48.120;14.854;2022-09-02T20:23:50;6.13;;;1.95;;
37377;SDS011;23248;48.120;14.854;2022-09-02T20:26:31;3.33;;;2.13;;
37377;SDS011;23248;48.120;14.854;2022-09-02T21:20:57;4.03;;;1.90;;
37377;SDS011;23248;48.120;14.854;2022-09-02T21:23:40;2.35;;;1.88;;
37377;SDS011;23248;48.120;14.854;2022-09-02T21:29:03;2.40;;;1.98;;
37377;SDS011;23248;48.120;14.854;2022-09-02T21:31:38;4.00;;;2.10;;
37377;SDS011;23248;48.120;14.854;2022-09-02T21:34:25;5.78;;;1.90;;
37377;SDS011;23248;48.120;14.854;2022-09-02T21:37:12;2.97;;;2.10;;
37377;SDS011;23248;48.120;14.854;2022-09-02T21:39:42;3.67;;;1.85;;
37377;SDS011;23248;48.120;14.854;2022-09-02T21:56:31;1.90;;;1.70;;
37377;SDS011;23248;48.120;14.854;2022-09-02T22:04:37;3.70;;;2.00;;
37377;SDS011;23248;48.120;14.854;2022-09-02T22:09:47;5.87;;;1.93;;
37377;SDS011;23248;48.120;14.854;2022-09-02T22:12:23;2.47;;;2.00;;
37377;SDS011;23248;48.120;14.854;2022-09-02T22:17:40;3.33;;;1.90;;
37377;SDS011;23248;48.120;14.854;2022-09-02T22:20:26;2.75;;;2.00;;
37377;SDS011;23248;48.120;14.854;2022-09-02T22:23:00;6.90;;;1.90;;
37377;SDS011;23248;48.120;14.854;2022-09-02T22:25:31;2.00;;;1.90;;
37377;SDS011;23248;48.120;14.854;2022-09-02T22:28:00;2.80;;;2.00;;
37377;SDS011;23248;48.120;14.854;2022-09-02T22:30:37;3.33;;;2.08;;
37377;SDS011;23248;48.120;14.854;2022-09-02T22:33:11;3.07;;;1.90;;
37377;SDS011;23248;48.120;14.854;2022-09-02T22:38:48;2.38;;;1.60;;
37377;SDS011;23248;48.120;14.854;2022-09-02T22:43:57;3.30;;;1.83;;
37377;SDS011;23248;48.120;14.854;2022-09-02T22:49:41;2.05;;;1.95;;
37377;SDS011;23248;48.120;14.854;2022-09-02T22:52:35;3.70;;;1.90;;
37377;SDS011;23248;48.120;14.854;2022-09-02T23:06:54;5.57;;;2.17;;
37377;SDS011;23248;48.120;14.854;2022-09-02T23:09:29;1.90;;;1.80;;
37377;SDS011;23248;48.120;14.854;2022-09-02T23:11:58;4.13;;;2.27;;
37377;SDS011;23248;48.120;14.854;2022-09-02T23:14:51;3.13;;;1.80;;
37377;SDS011;23248;48.120;14.854;2022-09-02T23:34:24;2.20;;;2.00;;
37377;SDS011;23248;48.120;14.854;2022-09-02T23:42:24;2.77;;;1.90;;
37377;SDS011;23248;48.120;14.854;2022-09-02T23:44:51;9.07;;;2.10;;
37377;SDS011;23248;48.120;14.854;2022-09-02T23:58:34;3.67;;;2.00;;
